Time;durP1;ratioP1;P1;durP2;ratioP2;P2;SDS_P1;SDS_P2;PMS_P1;PMS_P2;Temp;Humidity;BMP_temperature;BMP_pressure;BME280_temperature;BME280_humidity;BME280_pressure;Samples;Min_cycle;Max_cycle;Signal;HPM_P1;HPM_P2
2022/08/13 00:02:02;;;;;;;4.50;1.85;;;23.00;44.60;;;;;;9176115;19;20348;-70
2022/08/13 00:05:09;;;;;;;5.30;1.92;;;23.00;44.80;;;;;;9176798;19;20010;-70
2022/08/13 00:08:37;;;;;;;2.85;1.90;;;22.90;44.80;;;;;;9180163;19;20018;-70
2022/08/13 00:15:09;;;;;;;4.35;1.90;;;22.80;44.90;;;;;;9181020;19;20041;-69
2022/08/13 00:18:20;;;;;;;4.32;1.90;;;22.80;45.00;;;;;;9174729;19;20017;-69
2022/08/13 00:21:34;;;;;;;4.63;1.85;;;22.70;45.70;;;;;;9176496;19;20023;-69
2022/08/13 00:25:03;;;;;;;5.80;2.20;;;22.70;45.10;;;;;;9175435;19;20673;-69
2022/08/13 00:28:18;;;;;;;6.22;1.98;;;22.60;45.20;;;;;;9176473;19;20113;-69
2022/08/13 00:31:23;;;;;;;3.42;2.00;;;22.60;45.20;;;;;;9177566;19;20015;-71
2022/08/13 00:34:28;;;;;;;6.38;2.03;;;22.50;45.30;;;;;;9180137;19;20025;-70
2022/08/13 00:37:37;;;;;;;4.40;2.00;;;22.50;45.40;;;;;;9180992;19;20473;-71
2022/08/13 00:41:02;;;;;;;2.30;1.90;;;22.40;45.50;;;;;;9178381;19;20027;-71
2022/08/13 00:44:09;;;;;;;3.70;1.63;;;22.40;45.60;;;;;;9179278;19;20027;-71
2022/08/13 00:50:33;;;;;;;3.20;2.03;;;22.20;45.70;;;;;;9178488;19;20031;-71
2022/08/13 00:53:43;;;;;;;4.57;1.95;;;22.20;45.80;;;;;;9178522;19;20015;-71
2022/08/13 00:56:57;;;;;;;5.25;2.10;;;22.10;45.80;;;;;;9177630;19;20430;-70
2022/08/13 01:00:06;;;;;;;2.85;1.90;;;22.10;45.90;;;;;;9180694;19;20014;-70
2022/08/13 01:03:21;;;;;;;3.45;1.52;;;22.10;46.00;;;;;;9176702;19;20010;-72
2022/08/13 01:06:47;;;;;;;2.05;1.63;;;22.00;46.10;;;;;;9174599;19;20030;-70
2022/08/13 01:09:56;;;;;;;3.90;2.10;;;21.90;46.10;;;;;;9170105;19;20131;-70
2022/08/13 01:13:28;;;;;;;7.03;2.03;;;21.90;46.10;;;;;;9174068;19;20471;-68
2022/08/13 01:16:38;;;;;;;5.93;1.90;;;21.80;46.20;;;;;;9171863;19;20018;-70
2022/08/13 01:20:06;;;;;;;3.30;1.83;;;21.80;46.30;;;;;;9171552;19;20015;-69
2022/08/13 01:23:20;;;;;;;2.65;1.65;;;21.70;46.40;;;;;;9171236;19;20010;-70
2022/08/13 01:26:42;;;;;;;3.60;1.90;;;21.70;46.50;;;;;;9171571;19;20791;-70
2022/08/13 01:29:52;;;;;;;2.63;1.95;;;21.60;46.50;;;;;;9174586;19;20484;-69
2022/08/13 01:33:02;;;;;;;4.65;1.88;;;21.60;46.60;;;;;;9172516;19;20018;-70
2022/08/13 01:36:09;;;;;;;5.45;1.98;;;21.60;46.80;;;;;;9172700;19;20019;-70
2022/08/13 01:39:24;;;;;;;5.30;1.73;;;21.50;46.90;;;;;;9170612;19;20022;-71
2022/08/13 01:42:40;;;;;;;5.45;2.20;;;21.40;46.90;;;;;;9173472;19;20563;-69
2022/08/13 01:45:47;;;;;;;6.70;1.75;;;21.40;47.00;;;;;;9172420;19;20085;-69
2022/08/13 01:52:21;;;;;;;5.05;2.33;;;21.30;47.10;;;;;;9171347;19;20555;-69
2022/08/13 01:55:38;;;;;;;3.28;2.03;;;21.30;47.20;;;;;;9170996;19;20509;-69
2022/08/13 01:59:05;;;;;;;3.78;2.13;;;21.20;47.30;;;;;;9173102;19;20033;-68
2022/08/13 02:02:14;;;;;;;3.30;1.70;;;21.20;47.40;;;;;;9173734;19;20014;-70
2022/08/13 02:05:39;;;;;;;5.40;1.85;;;21.10;47.40;;;;;;9169458;19;20082;-69
2022/08/13 02:09:06;;;;;;;4.53;1.95;;;21.10;47.50;;;;;;9179656;19;20022;-68
2022/08/13 02:12:35;;;;;;;3.13;2.08;;;21.00;47.60;;;;;;9181915;19;20540;-68
2022/08/13 02:15:41;;;;;;;4.07;1.90;;;21.00;47.60;;;;;;9182084;19;20011;-69
2022/08/13 02:18:47;;;;;;;2.63;1.85;;;20.90;47.60;;;;;;9180978;19;20041;-69
2022/08/13 02:21:54;;;;;;;7.40;1.90;;;20.90;47.80;;;;;;9178993;19;20081;-68
2022/08/13 02:25:01;;;;;;;4.63;1.70;;;20.90;47.90;;;;;;9178122;19;20057;-69
2022/08/13 02:28:10;;;;;;;4.28;1.83;;;20.90;48.00;;;;;;9177337;19;20062;-69
2022/08/13 02:31:26;;;;;;;2.25;1.90;;;20.80;48.00;;;;;;9181914;19;20379;-69
2022/08/13 02:34:53;;;;;;;8.23;1.80;;;20.80;48.10;;;;;;9178606;19;20430;-69
2022/08/13 02:37:58;;;;;;;5.85;1.90;;;20.70;48.20;;;;;;9175836;19;20025;-69
2022/08/13 02:44:26;;;;;;;4.80;2.00;;;20.60;48.30;;;;;;9177626;19;20074;-69
2022/08/13 02:47:39;;;;;;;6.93;2.03;;;20.60;48.40;;;;;;9180894;19;20053;-70
2022/08/13 02:50:49;;;;;;;3.00;1.80;;;20.60;48.50;;;;;;9178167;19;20430;-70
2022/08/13 02:53:56;;;;;;;4.80;1.80;;;20.50;48.50;;;;;;9178228;19;20015;-70
2022/08/13 02:57:03;;;;;;;3.83;1.95;;;20.50;48.60;;;;;;9178456;19;20014;-69
2022/08/13 03:00:13;;;;;;;2.30;1.70;;;20.40;48.60;;;;;;9179172;19;20123;-68
2022/08/13 03:03:19;;;;;;;6.80;2.10;;;20.40;48.80;;;;;;9178443;19;20014;-70
2022/08/13 03:06:27;;;;;;;4.63;2.33;;;20.40;48.80;;;;;;9177824;19;20073;-69
2022/08/13 03:09:32;;;;;;;8.93;2.92;;;20.40;48.90;;;;;;9175277;19;20396;-70
2022/08/13 03:12:38;;;;;;;3.78;1.95;;;20.30;48.90;;;;;;9176780;19;20442;-70
2022/08/13 03:15:49;;;;;;;2.22;1.88;;;20.30;49.10;;;;;;9176960;19;20482;-69
2022/08/13 03:19:05;;;;;;;2.72;1.67;;;20.20;49.10;;;;;;9176890;19;20034;-69
2022/08/13 03:22:13;;;;;;;10.02;1.95;;;20.20;49.10;;;;;;9175787;19;20018;-68
2022/08/13 03:25:19;;;;;;;3.22;1.75;;;20.20;49.20;;;;;;9177406;19;20023;-69
2022/08/13 03:28:28;;;;;;;4.72;2.50;;;20.10;49.20;;;;;;9179199;19;20025;-68
2022/08/13 03:31:37;;;;;;;4.95;2.00;;;20.10;49.30;;;;;;9178991;19;20364;-68
2022/08/13 03:34:58;;;;;;;3.42;2.17;;;20.10;49.50;;;;;;9179028;19;20014;-68
2022/08/13 03:38:17;;;;;;;2.67;1.98;;;20.00;49.40;;;;;;9176112;19;20022;-68
2022/08/13 03:41:22;;;;;;;4.90;1.90;;;20.00;49.50;;;;;;9175273;19;20360;-69
2022/08/13 03:44:27;;;;;;;5.60;2.10;;;20.00;49.60;;;;;;9177289;19;20033;-68
2022/08/13 03:47:41;;;;;;;6.35;1.90;;;19.90;49.60;;;;;;9174107;19;20018;-67
2022/08/13 03:50:50;;;;;;;2.92;1.95;;;19.90;49.80;;;;;;9175605;19;20026;-66
2022/08/13 03:53:59;;;;;;;5.40;2.10;;;19.90;49.80;;;;;;9177445;19;20399;-69
2022/08/13 03:57:05;;;;;;;2.88;1.98;;;19.90;49.90;;;;;;9177003;19;20022;-68
2022/08/13 04:00:29;;;;;;;3.28;1.75;;;19.80;49.90;;;;;;9176793;19;20018;-68
2022/08/13 04:03:40;;;;;;;9.85;1.80;;;19.80;49.90;;;;;;9174769;19;20018;-67
2022/08/13 04:06:47;;;;;;;3.53;1.95;;;19.80;50.10;;;;;;9175110;19;20018;-68
2022/08/13 04:09:55;;;;;;;5.60;2.22;;;19.80;50.00;;;;;;9171693;19;20399;-67
2022/08/13 04:13:00;;;;;;;5.82;2.55;;;19.80;50.10;;;;;;9174706;19;20018;-68
2022/08/13 04:16:07;;;;;;;4.10;2.10;;;19.70;50.10;;;;;;9176703;19;20094;-68
2022/08/13 04:19:17;;;;;;;3.08;2.20;;;19.70;50.10;;;;;;9175933;19;20014;-69
2022/08/13 04:22:27;;;;;;;3.53;2.20;;;19.70;50.20;;;;;;9175457;19;20570;-67
2022/08/13 04:25:33;;;;;;;6.47;2.10;;;19.70;50.20;;;;;;9172177;19;20019;-68
2022/08/13 04:28:47;;;;;;;10.57;3.42;;;19.60;50.10;;;;;;9176084;19;20950;-68
2022/08/13 04:31:53;;;;;;;5.25;2.30;;;19.60;50.20;;;;;;9176233;19;20015;-68
2022/08/13 04:35:04;;;;;;;6.25;2.40;;;19.60;50.20;;;;;;9172910;19;20762;-68
2022/08/13 04:38:20;;;;;;;7.15;3.55;;;19.60;50.30;;;;;;9174939;19;20049;-68
2022/08/13 04:41:25;;;;;;;6.00;2.35;;;19.60;50.30;;;;;;9174805;19;20105;-68
2022/08/13 04:44:33;;;;;;;6.95;2.50;;;19.60;50.30;;;;;;9176701;19;20062;-68
2022/08/13 04:47:38;;;;;;;5.40;2.40;;;19.60;50.30;;;;;;9172914;19;20377;-69
2022/08/13 04:50:49;;;;;;;3.50;2.20;;;19.60;50.40;;;;;;9172777;19;20018;-69
2022/08/13 04:53:55;;;;;;;5.85;2.30;;;19.60;50.50;;;;;;9174418;19;20025;-69
2022/08/13 04:57:00;;;;;;;7.85;3.03;;;19.60;50.50;;;;;;9175553;19;20015;-66
2022/08/13 05:00:12;;;;;;;7.45;2.45;;;19.60;50.50;;;;;;9173887;19;20486;-69
2022/08/13 05:03:20;;;;;;;8.27;2.30;;;19.60;50.60;;;;;;9173225;19;20018;-68
2022/08/13 05:06:39;;;;;;;4.65;2.35;;;19.60;50.60;;;;;;9174822;19;20017;-69
2022/08/13 05:09:46;;;;;;;3.78;2.08;;;19.60;50.60;;;;;;9172481;19;20022;-69
2022/08/13 05:12:57;;;;;;;5.43;2.40;;;19.60;50.60;;;;;;9172622;19;20023;-69
2022/08/13 05:16:09;;;;;;;3.40;2.25;;;19.50;50.60;;;;;;9172538;19;20608;-68
2022/08/13 05:19:16;;;;;;;5.75;2.20;;;19.60;50.70;;;;;;9169482;19;20026;-70
2022/08/13 05:22:24;;;;;;;9.77;2.42;;;19.60;50.80;;;;;;9171331;19;20459;-69
2022/08/13 05:25:33;;;;;;;5.07;2.75;;;19.60;50.90;;;;;;9169472;19;20010;-69
2022/08/13 05:29:04;;;;;;;5.03;2.53;;;19.60;50.80;;;;;;9172290;19;20022;-70
2022/08/13 05:32:10;;;;;;;4.60;2.22;;;19.60;50.90;;;;;;9173222;19;20097;-69
2022/08/13 05:35:20;;;;;;;3.30;2.15;;;19.60;50.90;;;;;;9172621;19;20019;-70
2022/08/13 05:38:48;;;;;;;10.55;3.05;;;19.60;51.00;;;;;;9175931;19;20643;-70
2022/08/13 05:41:53;;;;;;;3.13;2.13;;;19.70;51.10;;;;;;9180441;19;20029;-70
2022/08/13 05:45:13;;;;;;;7.45;2.00;;;19.70;51.10;;;;;;9188203;19;20340;-70
2022/08/13 05:48:23;;;;;;;3.25;2.45;;;19.80;51.20;;;;;;9182078;19;20015;-70
2022/08/13 05:51:33;;;;;;;2.97;1.95;;;19.80;51.20;;;;;;9187139;19;20010;-70
2022/08/13 05:55:00;;;;;;;4.72;1.80;;;19.90;51.30;;;;;;9187332;19;20006;-70
2022/08/13 05:58:27;;;;;;;6.47;2.10;;;20.00;51.30;;;;;;9186865;19;20022;-70
2022/08/13 06:05:01;;;;;;;7.68;2.45;;;20.30;51.40;;;;;;9186823;19;20010;-70
2022/08/13 06:08:08;;;;;;;7.43;2.03;;;20.40;51.30;;;;;;9183955;19;20018;-70
2022/08/13 06:11:38;;;;;;;6.95;1.83;;;20.60;51.40;;;;;;9182251;19;20014;-70
2022/08/13 06:15:04;;;;;;;5.50;1.95;;;20.70;51.30;;;;;;9186184;19;20033;-70
2022/08/13 06:18:13;;;;;;;3.55;1.88;;;20.90;51.30;;;;;;9186757;19;20017;-70
2022/08/13 06:21:33;;;;;;;5.38;2.10;;;21.10;51.30;;;;;;9182811;19;20019;-70
2022/08/13 06:24:55;;;;;;;4.75;2.20;;;21.30;51.30;;;;;;9183958;19;20490;-69
2022/08/13 06:28:03;;;;;;;3.65;1.90;;;21.50;51.20;;;;;;9180407;19;20094;-70
2022/08/13 06:31:11;;;;;;;8.68;2.10;;;21.70;51.20;;;;;;9183407;19;20018;-70
2022/08/13 06:34:31;;;;;;;4.38;1.80;;;21.90;51.10;;;;;;9182724;19;20096;-71
2022/08/13 06:37:43;;;;;;;8.10;1.70;;;22.20;51.00;;;;;;9184886;19;20017;-70
2022/08/13 06:40:59;;;;;;;5.35;1.75;;;22.40;50.90;;;;;;9182688;19;20022;-71
2022/08/13 06:44:07;;;;;;;4.22;1.80;;;22.60;50.80;;;;;;9182809;19;20535;-70
2022/08/13 06:47:12;;;;;;;4.57;1.95;;;22.80;50.60;;;;;;9182152;19;20023;-70
2022/08/13 06:50:21;;;;;;;4.38;1.90;;;23.00;50.50;;;;;;9183418;19;20049;-70
2022/08/13 06:53:26;;;;;;;3.17;1.55;;;23.20;50.30;;;;;;9183755;19;20027;-71
2022/08/13 06:56:51;;;;;;;2.90;1.50;;;23.40;50.20;;;;;;9183914;19;20107;-70
2022/08/13 07:00:20;;;;;;;9.10;1.77;;;23.70;50.20;;;;;;9185002;19;20053;-70
2022/08/13 07:03:33;;;;;;;10.57;1.65;;;23.90;50.00;;;;;;9183357;19;20026;-69
2022/08/13 07:06:59;;;;;;;5.65;1.60;;;24.10;49.90;;;;;;9182112;19;20668;-69
2022/08/13 07:10:08;;;;;;;3.28;1.45;;;24.30;49.70;;;;;;9177267;19;20096;-71
2022/08/13 07:13:13;;;;;;;5.30;1.70;;;24.60;49.60;;;;;;9182824;19;20089;-69
2022/08/13 07:16:45;;;;;;;3.67;1.33;;;24.70;49.50;;;;;;9182206;19;20022;-71
2022/08/13 07:19:50;;;;;;;3.33;1.50;;;25.00;49.40;;;;;;9181129;19;20025;-70
2022/08/13 07:23:11;;;;;;;4.70;1.60;;;25.10;49.20;;;;;;9182859;19;20448;-69
2022/08/13 07:26:37;;;;;;;7.50;1.75;;;25.30;49.20;;;;;;9184005;19;20038;-69
2022/08/13 07:29:49;;;;;;;7.35;1.65;;;25.50;49.10;;;;;;9183546;19;20082;-70
2022/08/13 07:33:00;;;;;;;4.97;1.50;;;25.70;49.10;;;;;;9182324;19;20119;-69
2022/08/13 07:36:08;;;;;;;4.28;1.30;;;25.90;48.90;;;;;;9181006;19;20003;-70
2022/08/13 07:39:16;;;;;;;9.55;1.50;;;26.10;48.80;;;;;;9179889;19;20526;-70
2022/08/13 07:42:28;;;;;;;2.22;1.02;;;26.30;48.70;;;;;;9173593;19;20026;-70
2022/08/13 07:45:35;;;;;;;8.07;1.40;;;26.50;48.80;;;;;;9175327;19;20014;-70
2022/08/13 07:49:03;;;;;;;2.83;1.60;;;26.70;48.60;;;;;;9173459;19;20014;-70
2022/08/13 07:52:09;;;;;;;6.57;1.83;;;26.90;48.40;;;;;;9175197;19;20011;-70
2022/08/13 07:55:21;;;;;;;2.08;1.02;;;27.10;48.30;;;;;;9172297;19;20037;-70
2022/08/13 07:58:46;;;;;;;2.08;1.33;;;27.30;48.10;;;;;;9174097;19;20074;-70
2022/08/13 08:01:58;;;;;;;5.15;1.50;;;27.50;48.00;;;;;;9177364;19;20025;-70
2022/08/13 08:05:27;;;;;;;10.45;1.33;;;27.70;47.90;;;;;;9176492;19;20413;-71
2022/08/13 08:08:42;;;;;;;5.80;1.30;;;27.90;47.70;;;;;;9175469;19;20018;-70
2022/08/13 08:15:09;;;;;;;2.95;0.90;;;28.20;47.30;;;;;;9175261;19;20019;-70
2022/08/13 08:18:18;;;;;;;2.33;1.15;;;28.40;47.10;;;;;;9178081;19;20025;-74
2022/08/13 08:21:44;;;;;;;3.33;1.20;;;28.50;47.00;;;;;;9177042;19;20010;-73
2022/08/13 08:25:13;;;;;;;1.83;0.98;;;28.70;46.80;;;;;;9174994;19;20039;-68
2022/08/13 08:28:25;;;;;;;1.63;0.90;;;29.00;46.60;;;;;;9172341;19;20041;-69
2022/08/13 08:31:41;;;;;;;2.33;1.15;;;29.20;46.50;;;;;;9174794;19;20014;-71
2022/08/13 08:35:06;;;;;;;2.13;1.20;;;29.30;46.30;;;;;;9173777;19;20025;-69
2022/08/13 08:44:59;;;;;;;2.70;1.20;;;29.90;45.70;;;;;;9175373;19;20029;-69
2022/08/13 08:48:06;;;;;;;5.13;1.27;;;30.10;45.50;;;;;;9173823;19;20018;-69
2022/08/13 08:51:12;;;;;;;2.13;1.10;;;30.20;45.30;;;;;;9175048;19;20033;-69
2022/08/13 08:54:29;;;;;;;4.77;1.37;;;30.40;45.10;;;;;;9176293;19;20019;-68
2022/08/13 08:57:37;;;;;;;5.47;1.73;;;30.50;44.90;;;;;;9175986;19;20023;-68
2022/08/13 09:00:49;;;;;;;5.05;1.13;;;30.70;44.80;;;;;;9176484;19;20019;-71
2022/08/13 09:03:57;;;;;;;2.67;0.93;;;30.90;44.60;;;;;;9176055;19;20462;-70
2022/08/13 09:07:03;;;;;;;6.35;1.00;;;31.00;44.40;;;;;;9175008;19;20126;-68
2022/08/13 09:10:12;;;;;;;2.00;1.00;;;31.20;44.20;;;;;;9168262;19;20019;-68
2022/08/13 09:13:19;;;;;;;2.22;1.20;;;31.30;44.00;;;;;;9173372;19;20017;-70
2022/08/13 09:16:26;;;;;;;1.00;0.63;;;31.50;43.80;;;;;;9178427;19;20011;-70
2022/08/13 09:19:31;;;;;;;3.30;0.90;;;31.70;43.70;;;;;;9184110;19;20017;-67
2022/08/13 09:23:04;;;;;;;5.75;1.05;;;31.80;43.50;;;;;;9185252;19;20059;-68
2022/08/13 09:26:22;;;;;;;7.95;1.27;;;32.00;43.20;;;;;;9183612;19;20053;-68
2022/08/13 09:29:33;;;;;;;3.17;0.77;;;32.10;43.10;;;;;;9182201;19;20014;-68
2022/08/13 09:32:41;;;;;;;4.25;1.00;;;32.20;42.90;;;;;;9183687;19;20368;-69
2022/08/13 09:35:49;;;;;;;1.77;1.00;;;32.40;42.80;;;;;;9184160;19;20022;-68
2022/08/13 09:38:55;;;;;;;1.73;1.13;;;32.50;42.60;;;;;;9183815;19;20026;-68
2022/08/13 09:42:07;;;;;;;1.45;1.10;;;32.70;42.40;;;;;;9185161;19;20025;-69
2022/08/13 09:45:12;;;;;;;6.05;1.25;;;32.80;42.10;;;;;;9184422;19;20021;-69
2022/08/13 09:48:17;;;;;;;4.50;1.10;;;32.90;41.90;;;;;;9182926;19;20348;-69
2022/08/13 09:51:41;;;;;;;3.50;1.13;;;33.10;41.70;;;;;;9181759;19;20014;-68
2022/08/13 09:55:07;;;;;;;8.00;1.08;;;33.20;41.50;;;;;;9183440;19;20021;-69
2022/08/13 09:58:15;;;;;;;2.53;1.00;;;33.30;41.30;;;;;;9180952;19;20018;-69
2022/08/13 10:01:41;;;;;;;4.65;1.10;;;33.40;41.00;;;;;;9182571;19;20425;-68
2022/08/13 10:05:01;;;;;;;2.05;0.70;;;33.40;40.90;;;;;;9180208;19;20491;-69
2022/08/13 10:08:08;;;;;;;6.07;0.95;;;33.60;40.80;;;;;;9182178;19;20011;-69
2022/08/13 10:11:13;;;;;;;1.98;1.00;;;33.70;40.50;;;;;;9182015;19;20021;-70
2022/08/13 10:14:29;;;;;;;2.47;1.20;;;33.70;40.30;;;;;;9185827;19;20471;-67
2022/08/13 10:17:46;;;;;;;2.08;1.00;;;33.80;40.30;;;;;;9184761;19;20011;-69
2022/08/13 10:20:53;;;;;;;1.95;0.90;;;33.90;40.00;;;;;;9184433;19;20022;-69
2022/08/13 10:23:58;;;;;;;4.50;1.00;;;33.90;40.10;;;;;;9184495;19;20022;-69
2022/08/13 10:27:03;;;;;;;1.52;0.90;;;34.00;39.90;;;;;;9183698;19;20082;-68
2022/08/13 10:30:17;;;;;;;7.00;1.10;;;34.00;39.60;;;;;;9180077;19;20018;-69
2022/08/13 10:33:42;;;;;;;3.22;0.80;;;34.10;40.10;;;;;;9184727;19;20026;-71
2022/08/13 10:36:51;;;;;;;0.80;0.80;;;34.10;39.40;;;;;;9183947;19;20364;-69
2022/08/13 10:39:56;;;;;;;3.30;0.70;;;34.20;39.20;;;;;;9183324;19;20449;-68
2022/08/13 10:43:04;;;;;;;4.13;0.82;;;34.20;39.00;;;;;;9184859;19;20015;-68
2022/08/13 10:46:16;;;;;;;1.30;0.73;;;34.30;39.00;;;;;;9184089;19;20011;-68
2022/08/13 10:49:32;;;;;;;2.65;0.65;;;34.40;38.80;;;;;;9182011;19;20341;-68
2022/08/13 10:52:39;;;;;;;3.25;0.80;;;34.50;38.70;;;;;;9184833;19;20014;-68
2022/08/13 10:55:48;;;;;;;2.80;1.10;;;34.50;38.50;;;;;;9183583;19;20355;-68
2022/08/13 10:58:53;;;;;;;1.00;0.80;;;34.60;38.40;;;;;;9184293;19;20018;-68
2022/08/13 11:02:01;;;;;;;2.63;0.90;;;34.70;38.30;;;;;;9182380;19;20022;-68
2022/08/13 11:05:07;;;;;;;0.60;0.60;;;34.70;38.00;;;;;;9181767;19;20010;-68
2022/08/13 11:08:15;;;;;;;1.40;0.80;;;34.80;38.00;;;;;;9181199;19;20021;-67
2022/08/13 11:11:36;;;;;;;1.10;0.77;;;34.80;37.70;;;;;;9177714;19;20014;-68
2022/08/13 11:14:58;;;;;;;1.60;1.08;;;34.90;37.70;;;;;;9179336;19;20022;-68
2022/08/13 11:18:08;;;;;;;5.05;1.10;;;35.00;37.70;;;;;;9176870;19;20014;-68
2022/08/13 11:21:17;;;;;;;;;;;35.00;37.50;;;;;;9179050;19;20006;-68
2022/08/13 11:24:42;;;;;;;2.50;0.90;;;35.10;37.80;;;;;;9176506;19;20028;-68
2022/08/13 11:27:55;;;;;;;0.90;0.90;;;35.10;37.70;;;;;;9174679;19;20060;-68
2022/08/13 11:31:01;;;;;;;6.38;0.82;;;35.10;37.40;;;;;;9177937;19;20011;-68
2022/08/13 11:34:10;;;;;;;6.88;1.13;;;35.10;37.30;;;;;;9181023;19;21733;-68
2022/08/13 11:37:18;;;;;;;1.25;0.93;;;35.10;37.20;;;;;;9181463;19;20010;-69
2022/08/13 11:40:27;;;;;;;0.88;0.80;;;35.20;37.10;;;;;;9177223;19;20023;-69
2022/08/13 11:43:39;;;;;;;3.60;1.20;;;35.20;37.00;;;;;;9180558;19;20022;-68
2022/08/13 11:46:57;;;;;;;2.70;0.70;;;35.20;36.80;;;;;;9177874;19;20019;-69
2022/08/13 11:50:16;;;;;;;1.90;1.20;;;35.20;36.70;;;;;;9176537;19;20022;-69
2022/08/13 11:53:39;;;;;;;1.88;1.13;;;35.30;36.70;;;;;;9178254;19;20400;-69
2022/08/13 11:57:07;;;;;;;4.07;1.05;;;35.30;36.60;;;;;;9176143;19;20053;-71
2022/08/13 12:00:17;;;;;;;1.33;0.80;;;35.40;36.60;;;;;;9176313;19;20026;-69
2022/08/13 12:03:39;;;;;;;0.93;0.77;;;35.40;36.40;;;;;;9177502;19;20014;-69
2022/08/13 12:07:07;;;;;;;2.85;1.20;;;35.50;36.40;;;;;;9178402;19;20094;-70
2022/08/13 12:10:19;;;;;;;2.67;1.33;;;35.50;36.30;;;;;;9172992;19;20547;-69
2022/08/13 12:13:44;;;;;;;5.97;1.05;;;35.50;36.30;;;;;;9176234;19;20022;-71
2022/08/13 12:16:57;;;;;;;1.83;1.00;;;35.50;36.20;;;;;;9178152;19;20014;-70
2022/08/13 12:20:06;;;;;;;3.80;1.00;;;35.50;36.20;;;;;;9176538;19;20035;-72
2022/08/13 12:23:25;;;;;;;3.50;0.85;;;35.40;36.00;;;;;;9177468;19;20646;-71
2022/08/13 12:26:39;;;;;;;1.65;0.93;;;35.40;36.00;;;;;;9177776;19;20360;-73
2022/08/13 12:29:45;;;;;;;3.55;1.13;;;35.40;36.00;;;;;;9175304;19;20014;-70
2022/08/13 12:32:51;;;;;;;2.65;0.90;;;35.50;35.90;;;;;;9178863;19;20534;-70
2022/08/13 12:35:59;;;;;;;3.08;0.90;;;35.50;35.90;;;;;;9175386;19;20014;-70
2022/08/13 12:39:09;;;;;;;6.35;0.88;;;35.60;35.90;;;;;;9169393;19;20018;-70
2022/08/13 12:42:20;;;;;;;1.50;0.95;;;35.50;35.70;;;;;;9178133;19;20018;-71
2022/08/13 12:45:31;;;;;;;3.65;1.13;;;35.50;35.80;;;;;;9178495;19;20024;-70
2022/08/13 12:48:58;;;;;;;1.48;1.05;;;35.50;35.60;;;;;;9178951;19;20912;-70
2022/08/13 12:52:03;;;;;;;1.73;1.02;;;35.50;35.60;;;;;;9175853;19;20014;-70
2022/08/13 12:55:12;;;;;;;2.58;1.75;;;35.50;35.60;;;;;;9177160;19;20056;-70
2022/08/13 12:58:29;;;;;;;1.23;1.10;;;35.50;35.50;;;;;;9173862;19;20006;-69
2022/08/13 13:01:39;;;;;;;2.08;1.35;;;35.50;35.60;;;;;;9174083;19;20044;-72
2022/08/13 13:04:45;;;;;;;3.25;1.02;;;35.50;35.50;;;;;;9179620;19;20633;-69
2022/08/13 13:08:18;;;;;;;9.57;1.10;;;35.50;36.10;;;;;;9177110;19;20014;-70
2022/08/13 13:11:42;;;;;;;3.08;0.98;;;35.60;35.50;;;;;;9172133;19;20013;-70
2022/08/13 13:14:56;;;;;;;1.85;1.05;;;35.60;35.50;;;;;;9177377;19;20014;-70
2022/08/13 13:18:22;;;;;;;2.38;1.40;;;35.60;35.50;;;;;;9177649;19;20018;-69
2022/08/13 13:21:49;;;;;;;3.67;1.08;;;35.50;35.40;;;;;;9178443;19;20011;-70
2022/08/13 13:24:55;;;;;;;2.67;1.35;;;35.50;35.40;;;;;;9177779;19;20029;-71
2022/08/13 13:28:10;;;;;;;;;;;35.50;35.40;;;;;;9177588;19;20017;-73
2022/08/13 13:31:17;;;;;;;3.90;1.17;;;35.40;35.60;;;;;;9174533;19;19922;-70
2022/08/13 13:34:31;;;;;;;2.25;1.20;;;35.50;35.70;;;;;;9175715;19;20124;-69
2022/08/13 13:37:44;;;;;;;3.58;1.20;;;35.40;35.70;;;;;;9176408;19;20676;-72
2022/08/13 13:41:09;;;;;;;7.00;1.45;;;35.50;35.60;;;;;;9170889;19;20018;-70
2022/08/13 13:44:21;;;;;;;8.05;1.10;;;35.50;35.70;;;;;;9177940;19;20003;-71
2022/08/13 13:47:42;;;;;;;2.85;1.20;;;35.50;35.70;;;;;;9176217;19;20022;-71
2022/08/13 13:50:47;;;;;;;1.85;1.25;;;35.50;35.70;;;;;;9176446;19;20021;-70
2022/08/13 13:53:52;;;;;;;3.08;1.30;;;35.50;35.70;;;;;;9175955;19;20015;-71
2022/08/13 13:57:17;;;;;;;4.28;1.30;;;35.50;35.70;;;;;;9175798;19;20022;-70
2022/08/13 14:00:32;;;;;;;2.00;1.25;;;35.50;35.60;;;;;;9174387;19;20022;-71
2022/08/13 14:03:39;;;;;;;2.28;1.05;;;35.50;35.50;;;;;;9180711;19;20038;-71
2022/08/13 14:06:47;;;;;;;4.78;1.33;;;35.50;35.40;;;;;;9182724;19;20014;-70
2022/08/13 14:09:52;;;;;;;6.60;1.35;;;35.50;35.40;;;;;;9176667;19;20019;-69
2022/08/13 14:12:59;;;;;;;2.63;1.52;;;35.50;35.40;;;;;;9183231;19;20019;-68
2022/08/13 14:16:27;;;;;;;5.07;1.70;;;35.50;35.50;;;;;;9184402;19;20015;-70
2022/08/13 14:19:34;;;;;;;5.72;2.25;;;35.40;35.40;;;;;;9180511;19;20026;-70
2022/08/13 14:22:59;;;;;;;4.47;1.73;;;35.40;35.50;;;;;;9182375;19;20025;-70
2022/08/13 14:26:08;;;;;;;4.63;1.42;;;35.30;35.50;;;;;;9180281;19;20499;-69
2022/08/13 14:29:16;;;;;;;5.45;1.40;;;35.30;35.40;;;;;;9175365;19;20404;-71
2022/08/13 14:32:24;;;;;;;1.88;1.55;;;35.30;35.50;;;;;;9173820;19;20014;-70
2022/08/13 14:35:32;;;;;;;5.65;1.58;;;35.30;35.40;;;;;;9174100;19;20026;-70
2022/08/13 14:38:52;;;;;;;2.65;1.70;;;35.20;35.40;;;;;;9181864;19;20483;-71
2022/08/13 14:41:58;;;;;;;8.35;1.70;;;35.20;35.30;;;;;;9184014;19;20022;-70
2022/08/13 14:48:28;;;;;;;3.35;1.90;;;35.00;35.20;;;;;;9180578;19;20022;-69
2022/08/13 14:51:33;;;;;;;2.25;1.67;;;34.90;35.20;;;;;;9180785;19;20015;-70
2022/08/13 14:55:00;;;;;;;4.07;1.80;;;34.80;35.30;;;;;;9181841;19;20018;-68
2022/08/13 14:58:08;;;;;;;2.30;1.67;;;34.70;35.30;;;;;;9182098;19;20025;-70
2022/08/13 15:01:33;;;;;;;3.97;1.90;;;34.70;35.40;;;;;;9181453;19;20022;-71
2022/08/13 15:04:49;;;;;;;2.97;1.80;;;34.60;35.30;;;;;;9181006;19;20017;-69
2022/08/13 15:08:03;;;;;;;3.80;2.20;;;34.60;35.40;;;;;;9177264;19;20022;-69
2022/08/13 15:11:27;;;;;;;3.35;2.03;;;34.60;35.40;;;;;;9175947;19;20098;-70
2022/08/13 15:14:33;;;;;;;6.60;2.17;;;34.60;35.50;;;;;;9181179;19;20071;-69
2022/08/13 15:17:41;;;;;;;3.53;2.20;;;34.50;35.40;;;;;;9182905;19;20491;-70
2022/08/13 15:20:52;;;;;;;4.95;1.95;;;34.50;35.50;;;;;;9182979;19;20356;-71
2022/08/13 15:24:04;;;;;;;5.40;2.38;;;34.40;35.50;;;;;;9182574;19;20070;-70
2022/08/13 15:27:11;;;;;;;4.45;2.65;;;34.30;35.60;;;;;;9182034;19;20024;-70
2022/08/13 15:30:20;;;;;;;6.85;2.15;;;34.20;35.70;;;;;;9181847;19;20510;-71
2022/08/13 15:33:34;;;;;;;6.03;2.17;;;34.20;35.80;;;;;;9182681;19;20142;-69
2022/08/13 15:36:44;;;;;;;3.15;2.20;;;34.10;35.80;;;;;;9181033;19;20007;-68
2022/08/13 15:40:06;;;;;;;5.60;2.40;;;34.10;35.90;;;;;;9179910;19;20107;-70
2022/08/13 15:43:13;;;;;;;6.93;2.22;;;34.00;36.10;;;;;;9181913;19;20439;-69
2022/08/13 15:46:39;;;;;;;4.25;2.63;;;34.00;36.00;;;;;;9182032;19;20030;-70
2022/08/13 15:49:46;;;;;;;2.60;2.40;;;34.00;36.10;;;;;;9181650;19;20343;-70
2022/08/13 15:52:54;;;;;;;8.45;2.42;;;33.90;36.10;;;;;;9178080;19;20015;-70
2022/08/13 15:56:02;;;;;;;8.52;2.33;;;33.80;36.10;;;;;;9176748;19;20025;-71
2022/08/13 15:59:08;;;;;;;2.30;1.85;;;33.80;36.20;;;;;;9176721;19;20015;-70
2022/08/13 16:02:21;;;;;;;3.08;2.50;;;33.70;36.10;;;;;;9176019;19;20085;-69
2022/08/13 16:05:47;;;;;;;2.83;2.30;;;33.70;36.20;;;;;;9173695;19;20014;-69
2022/08/13 16:08:55;;;;;;;8.38;2.65;;;33.60;36.30;;;;;;9174390;19;20022;-70
2022/08/13 16:12:02;;;;;;;9.70;2.60;;;33.50;36.10;;;;;;9167555;19;20018;-72
2022/08/13 16:15:13;;;;;;;4.65;2.42;;;33.50;36.30;;;;;;9179991;19;20029;-69
2022/08/13 16:18:34;;;;;;;5.25;2.88;;;33.30;36.20;;;;;;9179762;19;20019;-70
2022/08/13 16:21:43;;;;;;;5.72;2.28;;;33.30;36.30;;;;;;9181052;19;20007;-69
2022/08/13 16:24:54;;;;;;;3.42;2.63;;;33.20;36.30;;;;;;9177232;19;20018;-69
2022/08/13 16:28:06;;;;;;;6.03;2.65;;;33.20;36.40;;;;;;9181036;19;20037;-69
2022/08/13 16:31:13;;;;;;;5.80;2.60;;;33.10;36.40;;;;;;9170576;19;20014;-71
2022/08/13 16:34:22;;;;;;;3.20;2.30;;;33.00;36.50;;;;;;9164562;19;20019;-71
2022/08/13 16:37:36;;;;;;;4.28;2.10;;;32.90;36.50;;;;;;9167986;19;20021;-69
2022/08/13 16:41:00;;;;;;;3.25;2.50;;;32.90;36.60;;;;;;9169769;19;20035;-70
2022/08/13 16:44:06;;;;;;;3.85;2.75;;;32.90;36.60;;;;;;9169916;19;20054;-71
2022/08/13 16:47:31;;;;;;;6.18;2.53;;;32.80;36.70;;;;;;9171403;19;20010;-72
2022/08/13 16:50:45;;;;;;;5.93;3.05;;;32.70;36.70;;;;;;9172572;19;20021;-71
2022/08/13 16:53:52;;;;;;;4.82;2.85;;;32.70;36.80;;;;;;9171988;19;20022;-69
2022/08/13 16:57:20;;;;;;;4.20;3.05;;;32.60;36.80;;;;;;9166460;19;20022;-69
2022/08/13 17:00:27;;;;;;;2.88;2.50;;;32.60;36.90;;;;;;9168533;19;20014;-70
2022/08/13 17:10:30;;;;;;;5.18;3.10;;;32.40;37.10;;;;;;9165205;19;20023;-69
2022/08/13 17:13:39;;;;;;;3.13;2.80;;;32.30;37.20;;;;;;9167776;19;20019;-69
2022/08/13 17:16:45;;;;;;;7.10;3.05;;;32.20;37.20;;;;;;9169969;19;20127;-72
2022/08/13 17:19:51;;;;;;;10.57;2.83;;;32.20;37.30;;;;;;9165412;19;20023;-72
2022/08/13 17:23:05;;;;;;;3.55;3.22;;;32.10;37.50;;;;;;9170460;19;20043;-69